Time;durP1;ratioP1;P1;durP2;ratioP2;P2;SDS_P1;SDS_P2;PMS_P1;PMS_P2;Temp;Humidity;BMP_temperature;BMP_pressure;BME280_temperature;BME280_humidity;BME280_pressure;Samples;Min_cycle;Max_cycle;Signal;HPM_P1;HPM_P2
2022/08/02 00:02:20;;;;;;;8.63;3.03;;;11.40;99.90;;;;;;5014560;28;20025;-78
2022/08/02 00:04:46;;;;;;;9.40;3.45;;;11.60;99.90;;;;;;5014458;28;20025;-78
2022/08/02 00:07:13;;;;;;;6.88;2.88;;;11.60;99.90;;;;;;5014616;28;20037;-78
2022/08/02 00:09:39;;;;;;;7.80;3.03;;;11.70;99.90;;;;;;5025631;28;20102;-77
2022/08/02 00:12:05;;;;;;;6.22;2.58;;;11.50;99.90;;;;;;5032850;28;20061;-78
2022/08/02 00:14:31;;;;;;;6.97;3.03;;;11.50;99.90;;;;;;5034026;28;20037;-78
2022/08/02 00:16:56;;;;;;;7.43;3.03;;;11.40;99.90;;;;;;5034137;28;20033;-78
2022/08/02 00:19:22;;;;;;;6.68;2.80;;;11.40;99.90;;;;;;5034029;28;20029;-78
2022/08/02 00:21:47;;;;;;;5.40;2.80;;;11.40;99.90;;;;;;5034008;28;20028;-78
2022/08/02 00:24:13;;;;;;;7.35;2.30;;;11.50;99.90;;;;;;5033900;28;20104;-78
2022/08/02 00:26:39;;;;;;;6.75;2.75;;;11.80;99.90;;;;;;5033851;28;20029;-78
2022/08/02 00:29:04;;;;;;;7.82;2.88;;;11.60;99.90;;;;;;5033741;28;20029;-78
2022/08/02 00:31:30;;;;;;;6.38;2.97;;;11.70;99.90;;;;;;5033719;28;20013;-78
2022/08/02 00:33:56;;;;;;;5.38;2.42;;;11.60;99.90;;;;;;5045394;23;20068;-76
2022/08/02 00:36:21;;;;;;;7.18;2.80;;;11.50;99.90;;;;;;5032729;28;20056;-76
2022/08/02 00:38:49;;;;;;;6.70;3.67;;;11.50;99.90;;;;;;5032881;28;20021;-76
2022/08/02 00:41:18;;;;;;;4.85;2.72;;;11.30;99.90;;;;;;5032123;28;20387;-76
2022/08/02 00:43:46;;;;;;;9.90;2.90;;;11.50;99.90;;;;;;5032428;28;20109;-76
2022/08/02 00:46:13;;;;;;;5.70;2.92;;;11.50;99.90;;;;;;5014446;28;20076;-76
2022/08/02 00:48:39;;;;;;;6.32;2.97;;;11.40;99.90;;;;;;5030598;28;20036;-77
2022/08/02 00:51:04;;;;;;;9.52;3.50;;;11.30;99.90;;;;;;5031812;28;20029;-76
2022/08/02 00:53:31;;;;;;;6.15;3.67;;;11.50;99.90;;;;;;5032354;28;20029;-76
2022/08/02 00:55:56;;;;;;;11.50;3.20;;;11.40;99.90;;;;;;5032512;28;20075;-74
2022/08/02 00:58:22;;;;;;;9.20;3.13;;;11.30;99.90;;;;;;5032381;28;20041;-76
2022/08/02 01:00:48;;;;;;;7.03;3.13;;;11.30;99.90;;;;;;5032435;28;20017;-76
2022/08/02 01:03:14;;;;;;;8.23;3.58;;;11.30;99.90;;;;;;5032046;28;20104;-76
2022/08/02 01:05:40;;;;;;;9.40;4.45;;;11.20;99.90;;;;;;5031608;28;20479;-77
2022/08/02 01:08:06;;;;;;;9.88;3.45;;;11.10;99.90;;;;;;5038403;28;20025;-75
2022/08/02 01:10:32;;;;;;;12.88;3.45;;;11.10;99.90;;;;;;5046165;28;20075;-74
2022/08/02 01:12:57;;;;;;;8.95;3.00;;;11.10;99.90;;;;;;5032243;28;20030;-74
2022/08/02 01:15:24;;;;;;;6.60;3.25;;;11.00;99.90;;;;;;5032120;28;20026;-75
2022/08/02 01:18:04;;;;;;;6.20;3.35;;;11.00;99.90;;;;;;5032253;28;21857;-74
2022/08/02 01:21:00;;;;;;;9.40;3.70;;;10.90;99.90;;;;;;5016885;28;20037;-74
2022/08/02 01:23:41;;;;;;;8.85;3.42;;;10.90;99.90;;;;;;5032146;28;20537;-74
2022/08/02 01:26:47;;;;;;;7.32;3.60;;;10.90;99.90;;;;;;5032027;28;20155;-74
2022/08/02 01:29:18;;;;;;;9.50;3.90;;;10.90;99.90;;;;;;5032167;28;20022;-74
2022/08/02 01:34:36;;;;;;;6.00;3.45;;;10.90;99.90;;;;;;5069418;28;20388;-75
2022/08/02 01:37:18;;;;;;;11.63;4.18;;;10.80;99.90;;;;;;5069746;28;20107;-74
2022/08/02 01:39:47;;;;;;;12.52;3.90;;;10.80;99.90;;;;;;5062724;28;20018;-74
2022/08/02 01:42:14;;;;;;;7.75;3.80;;;10.70;99.90;;;;;;5069661;28;20028;-75
2022/08/02 01:44:42;;;;;;;10.38;3.75;;;10.70;99.90;;;;;;5069488;28;20477;-74
2022/08/02 01:47:30;;;;;;;9.20;3.75;;;10.70;99.90;;;;;;5069550;28;20016;-75
2022/08/02 01:49:58;;;;;;;9.70;4.25;;;10.80;99.90;;;;;;5066038;28;20472;-74
2022/08/02 01:52:28;;;;;;;15.00;4.03;;;10.90;99.90;;;;;;5049362;28;20040;-74
2022/08/02 01:55:09;;;;;;;10.23;4.15;;;11.10;99.90;;;;;;5066966;28;20075;-75
2022/08/02 01:57:41;;;;;;;12.77;4.38;;;11.00;99.90;;;;;;5069262;28;20043;-75
2022/08/02 02:00:09;;;;;;;9.45;3.72;;;11.00;99.90;;;;;;5069316;28;20096;-75
2022/08/02 02:02:39;;;;;;;8.05;4.25;;;10.90;99.90;;;;;;5058291;28;20043;-74
2022/08/02 02:05:06;;;;;;;8.35;3.88;;;10.90;99.90;;;;;;5049212;28;20420;-74
2022/08/02 02:07:33;;;;;;;8.43;3.97;;;10.90;99.90;;;;;;5060113;28;20031;-74
2022/08/02 02:10:02;;;;;;;6.85;3.80;;;11.00;99.90;;;;;;5068958;28;20034;-74
2022/08/02 02:12:32;;;;;;;7.47;4.03;;;11.00;99.90;;;;;;5068777;28;20032;-75
2022/08/02 02:14:59;;;;;;;10.15;4.10;;;11.00;99.90;;;;;;5068961;28;20047;-74
2022/08/02 02:17:26;;;;;;;8.55;3.75;;;11.30;99.90;;;;;;5069131;28;20027;-75
2022/08/02 02:19:54;;;;;;;13.00;4.22;;;11.30;99.90;;;;;;5069074;28;20017;-74
2022/08/02 02:22:20;;;;;;;9.35;4.18;;;11.20;99.90;;;;;;5069015;28;20387;-75
2022/08/02 02:24:45;;;;;;;8.38;4.55;;;11.30;99.90;;;;;;5068931;28;20108;-74
2022/08/02 02:27:13;;;;;;;10.07;4.13;;;11.20;99.90;;;;;;5068806;28;20021;-75
2022/08/02 02:29:43;;;;;;;9.70;4.15;;;11.20;99.90;;;;;;5068842;28;20108;-75
2022/08/02 02:32:10;;;;;;;10.35;4.40;;;11.10;99.90;;;;;;5067264;28;20021;-75
2022/08/02 02:34:39;;;;;;;8.70;4.15;;;11.10;99.90;;;;;;5056319;28;20082;-75
2022/08/02 02:37:20;;;;;;;11.27;4.13;;;11.20;99.90;;;;;;5068442;28;20021;-75
2022/08/02 02:39:49;;;;;;;8.52;4.25;;;11.20;99.90;;;;;;5068866;28;20037;-75
2022/08/02 02:42:18;;;;;;;12.32;4.32;;;11.10;99.90;;;;;;5068495;28;20033;-75
2022/08/02 02:44:46;;;;;;;11.45;4.30;;;11.10;99.90;;;;;;5061147;28;20017;-76
2022/08/02 02:47:15;;;;;;;7.40;3.80;;;11.10;99.90;;;;;;5055218;28;20025;-75
2022/08/02 02:49:44;;;;;;;7.97;3.72;;;11.20;99.90;;;;;;5055091;28;20364;-75
2022/08/02 02:52:10;;;;;;;9.82;3.95;;;11.20;99.90;;;;;;5055102;28;20029;-75
2022/08/02 02:54:37;;;;;;;9.52;3.92;;;11.20;99.90;;;;;;5055237;28;20045;-75
2022/08/02 02:57:04;;;;;;;6.15;3.70;;;11.20;99.90;;;;;;5045547;28;20096;-75
2022/08/02 02:59:34;;;;;;;8.90;4.03;;;11.20;99.90;;;;;;5037559;28;20018;-75
2022/08/02 03:02:01;;;;;;;7.45;4.05;;;11.40;99.90;;;;;;5054829;28;20380;-75
2022/08/02 03:04:28;;;;;;;11.77;4.47;;;11.30;99.90;;;;;;5054881;28;20028;-75
2022/08/02 03:06:54;;;;;;;8.90;3.70;;;11.20;99.90;;;;;;5054860;28;20069;-75
2022/08/02 03:09:19;;;;;;;9.25;3.78;;;11.20;99.90;;;;;;5054803;28;20499;-75
2022/08/02 03:11:45;;;;;;;8.07;3.70;;;11.30;99.90;;;;;;5049802;28;20024;-75
2022/08/02 03:14:12;;;;;;;11.98;4.20;;;11.40;99.90;;;;;;5046408;28;20063;-75
2022/08/02 03:16:50;;;;;;;9.38;3.42;;;11.30;99.90;;;;;;5054839;28;20021;-75
2022/08/02 03:19:17;;;;;;;8.95;3.88;;;11.20;99.90;;;;;;5054770;28;20078;-75
2022/08/02 03:21:44;;;;;;;7.28;3.63;;;11.30;99.90;;;;;;5054810;28;20028;-76
2022/08/02 03:24:10;;;;;;;12.35;3.85;;;11.30;99.90;;;;;;5041470;28;20029;-76
2022/08/02 03:26:36;;;;;;;9.10;3.60;;;11.40;99.90;;;;;;5047829;28;20033;-75
2022/08/02 03:29:02;;;;;;;9.75;3.60;;;11.40;99.90;;;;;;5047811;28;20023;-75
2022/08/02 03:31:28;;;;;;;14.30;4.10;;;11.40;99.90;;;;;;5034441;28;20025;-75
2022/08/02 03:33:58;;;;;;;10.90;4.05;;;11.50;99.90;;;;;;5034216;28;20046;-75
2022/08/02 03:36:26;;;;;;;;;;;11.50;99.90;;;;;;5054657;28;20033;-75
2022/08/02 03:38:53;;;;;;;7.03;3.65;;;11.50;99.90;;;;;;5054315;28;19912;-75
2022/08/02 03:41:20;;;;;;;7.82;3.88;;;11.60;99.90;;;;;;5047427;28;20024;-75
2022/08/02 03:43:47;;;;;;;8.27;3.88;;;11.70;99.90;;;;;;5034357;28;20025;-76
2022/08/02 03:46:17;;;;;;;7.75;4.10;;;11.70;99.90;;;;;;5034143;28;20030;-76
2022/08/02 03:48:43;;;;;;;6.35;4.03;;;11.60;99.90;;;;;;5048660;28;20166;-75
2022/08/02 03:51:09;;;;;;;9.00;3.72;;;11.60;99.90;;;;;;5038304;28;20017;-75
2022/08/02 03:53:36;;;;;;;12.02;3.95;;;11.80;99.90;;;;;;5033771;28;20025;-75
2022/08/02 03:56:02;;;;;;;6.97;4.03;;;11.80;99.90;;;;;;5047022;28;20025;-75
2022/08/02 03:58:28;;;;;;;9.98;4.20;;;11.80;99.90;;;;;;5033885;28;20394;-75
2022/08/02 04:00:57;;;;;;;10.90;4.05;;;11.80;99.90;;;;;;5050042;28;20059;-75
2022/08/02 04:03:23;;;;;;;9.98;3.90;;;11.80;99.90;;;;;;5053842;28;20029;-75
2022/08/02 04:05:48;;;;;;;9.30;3.80;;;11.90;99.90;;;;;;5052115;28;20017;-75
2022/08/02 04:08:14;;;;;;;10.50;4.32;;;12.00;99.90;;;;;;5035391;28;20033;-75
2022/08/02 04:13:27;;;;;;;6.43;3.22;;;12.30;99.90;;;;;;5046992;28;20048;-75
2022/08/02 04:15:57;;;;;;;7.05;3.40;;;12.30;99.90;;;;;;5046135;28;20409;-75
2022/08/02 04:18:28;;;;;;;9.55;3.83;;;12.50;99.90;;;;;;5053610;28;20013;-76
2022/08/02 04:20:55;;;;;;;8.45;3.80;;;12.60;99.90;;;;;;5039911;28;20185;-76
2022/08/02 04:23:23;;;;;;;10.07;3.70;;;12.70;99.90;;;;;;5046245;28;20079;-75
2022/08/02 04:25:49;;;;;;;6.55;3.17;;;12.80;97.90;;;;;;5034313;28;20462;-75
2022/08/02 04:28:16;;;;;;;10.77;5.13;;;12.80;96.20;;;;;;5053364;28;20017;-75
2022/08/02 04:30:42;;;;;;;6.57;3.60;;;12.80;90.10;;;;;;5040260;28;20026;-75
2022/08/02 04:33:07;;;;;;;6.05;3.08;;;12.80;99.90;;;;;;5045083;28;20045;-75
2022/08/02 04:35:33;;;;;;;6.25;3.15;;;12.90;99.90;;;;;;5047751;28;20357;-75
2022/08/02 04:38:00;;;;;;;9.43;3.38;;;12.90;99.90;;;;;;5053170;28;20028;-75
2022/08/02 04:40:25;;;;;;;11.75;3.55;;;13.00;88.80;;;;;;5038546;28;20017;-75
2022/08/02 04:42:51;;;;;;;8.10;3.53;;;13.10;47.60;;;;;;5033151;28;20051;-75
2022/08/02 04:45:17;;;;;;;6.55;3.17;;;13.20;58.60;;;;;;5033066;28;20028;-75
2022/08/02 04:47:42;;;;;;;9.07;3.67;;;13.30;35.00;;;;;;5033907;28;20083;-75
2022/08/02 04:50:08;;;;;;;8.60;3.50;;;13.30;27.40;;;;;;5053003;28;20021;-75
2022/08/02 04:52:34;;;;;;;7.38;3.45;;;13.30;33.50;;;;;;5038936;28;20109;-75
2022/08/02 04:54:59;;;;;;;6.22;3.40;;;13.30;38.20;;;;;;5032985;28;20053;-75
2022/08/02 05:00:10;;;;;;;7.88;3.50;;;13.20;72.70;;;;;;5032962;28;20430;-75
2022/08/02 05:02:35;;;;;;;8.15;3.20;;;13.20;83.10;;;;;;5033070;28;20100;-75
2022/08/02 05:05:01;;;;;;;13.07;4.05;;;13.20;41.90;;;;;;5032902;28;20109;-76
2022/08/02 05:07:27;;;;;;;6.78;3.40;;;13.40;64.80;;;;;;5032203;28;20022;-75
2022/08/02 05:09:52;;;;;;;9.30;3.60;;;13.60;44.60;;;;;;5032662;28;20144;-76
2022/08/02 05:12:20;;;;;;;6.53;3.42;;;13.90;7.00;;;;;;5042003;28;20461;-75
2022/08/02 05:14:49;;;;;;;6.10;3.78;;;14.40;1.00;;;;;;5036380;28;20353;-75
2022/08/02 05:17:15;;;;;;;6.10;2.92;;;16.40;1.00;;;;;;5032691;28;20359;-75
2022/08/02 05:19:41;;;;;;;8.90;3.08;;;19.90;99.90;;;;;;5049246;28;20457;-75
2022/08/02 05:22:06;;;;;;;4.55;3.17;;;21.20;99.90;;;;;;5052556;28;20074;-75
2022/08/02 05:24:32;;;;;;;7.15;3.20;;;23.10;99.90;;;;;;5049012;28;20377;-75
2022/08/02 05:26:57;;;;;;;7.15;2.88;;;24.60;99.90;;;;;;5050644;28;20021;-75
2022/08/02 05:29:23;;;;;;;6.07;2.95;;;26.00;99.90;;;;;;5052395;28;20376;-75
2022/08/02 05:31:49;;;;;;;5.57;2.97;;;25.50;99.90;;;;;;5052311;28;20551;-75
2022/08/02 05:34:14;;;;;;;5.90;2.92;;;22.70;99.90;;;;;;5051855;28;20110;-76
2022/08/02 05:36:40;;;;;;;5.95;2.70;;;21.30;99.90;;;;;;5052446;28;20103;-76
2022/08/02 05:39:06;;;;;;;8.25;2.90;;;22.50;99.90;;;;;;5052377;28;20009;-76
2022/08/02 05:41:31;;;;;;;9.32;3.30;;;22.00;99.90;;;;;;5052362;28;20017;-75
2022/08/02 05:43:57;;;;;;;5.55;2.38;;;21.00;99.90;;;;;;5052124;28;20033;-75
2022/08/02 05:46:23;;;;;;;6.38;2.83;;;20.40;99.90;;;;;;5033681;28;20453;-75
2022/08/02 05:48:48;;;;;;;5.57;2.83;;;19.80;99.90;;;;;;5041972;28;20049;-75
2022/08/02 05:51:38;;;;;;;4.60;2.40;;;19.70;99.90;;;;;;5035593;28;20424;-75
2022/08/02 05:54:30;;;;;;;;;;;19.90;99.90;;;;;;5045854;28;20032;-75
2022/08/02 05:57:02;;;;;;;7.00;2.33;;;20.00;99.90;;;;;;5032108;28;19909;-75
2022/08/02 05:59:46;;;;;;;3.10;2.50;;;20.10;99.90;;;;;;5036321;28;20021;-75
2022/08/02 06:02:41;;;;;;;4.90;2.35;;;20.40;99.90;;;;;;5038389;28;20061;-75
2022/08/02 06:05:10;;;;;;;5.18;2.10;;;20.30;99.90;;;;;;5022044;28;20168;-75
2022/08/02 06:07:37;;;;;;;4.50;2.42;;;20.50;99.90;;;;;;5036930;28;20106;-75
2022/08/02 06:10:06;;;;;;;7.43;2.35;;;21.10;99.90;;;;;;5039981;28;20044;-75
2022/08/02 06:12:40;;;;;;;7.00;2.45;;;21.30;99.90;;;;;;5043356;28;20527;-75
2022/08/02 06:15:06;;;;;;;6.10;2.17;;;21.60;99.90;;;;;;5051698;28;20052;-75
2022/08/02 06:17:32;;;;;;;4.82;2.38;;;21.70;99.90;;;;;;5051622;28;20480;-75
2022/08/02 06:19:59;;;;;;;5.07;2.42;;;22.50;99.90;;;;;;5034013;28;20027;-75
2022/08/02 06:22:30;;;;;;;7.43;2.22;;;23.00;99.90;;;;;;5035662;28;20017;-75
2022/08/02 06:24:57;;;;;;;4.75;2.50;;;24.40;99.90;;;;;;5035572;28;20022;-74
2022/08/02 06:27:26;;;;;;;4.65;2.03;;;25.90;99.90;;;;;;5035688;28;20021;-75
2022/08/02 06:29:53;;;;;;;4.32;2.00;;;27.50;99.90;;;;;;5047837;28;20028;-74
2022/08/02 06:32:20;;;;;;;4.50;2.00;;;28.10;99.90;;;;;;5035010;28;20493;-75
2022/08/02 06:34:45;;;;;;;4.43;2.42;;;28.70;99.90;;;;;;5040047;28;20052;-75
2022/08/02 06:37:49;;;;;;;5.30;2.20;;;28.50;99.90;;;;;;5055355;28;20437;-75
2022/08/02 06:40:34;;;;;;;5.13;1.90;;;29.20;99.90;;;;;;5022147;28;20038;-75
2022/08/02 06:43:17;;;;;;;5.20;2.03;;;28.60;99.90;;;;;;5035272;28;20438;-75
2022/08/02 06:45:43;;;;;;;4.95;2.13;;;27.20;99.90;;;;;;5041311;28;20028;-75
2022/08/02 06:48:08;;;;;;;4.20;1.80;;;27.00;99.90;;;;;;5035076;28;20026;-75
2022/08/02 06:50:37;;;;;;;4.75;1.77;;;26.80;99.90;;;;;;5037666;28;20026;-75
2022/08/02 06:53:04;;;;;;;7.23;2.30;;;29.50;99.90;;;;;;5037041;28;20110;-75
2022/08/02 06:55:31;;;;;;;4.18;1.85;;;31.30;99.90;;;;;;5034981;28;20029;-75
2022/08/02 06:57:57;;;;;;;2.72;1.77;;;32.00;99.90;;;;;;5040493;28;20021;-75
2022/08/02 07:00:23;;;;;;;1.67;1.52;;;33.50;97.20;;;;;;5054710;28;20028;-76
2022/08/02 07:02:49;;;;;;;3.47;1.85;;;33.90;92.30;;;;;;5054921;28;20369;-75
2022/08/02 07:05:14;;;;;;;2.42;1.52;;;33.60;83.60;;;;;;5054298;28;20033;-76
2022/08/02 07:07:40;;;;;;;5.22;1.85;;;34.80;80.20;;;;;;5054693;28;20017;-76
2022/08/02 07:10:06;;;;;;;4.70;1.67;;;34.20;71.60;;;;;;5053608;28;20465;-75
2022/08/02 07:12:33;;;;;;;5.20;1.60;;;34.40;62.80;;;;;;5034629;28;20057;-75
2022/08/02 07:15:01;;;;;;;3.67;1.90;;;36.00;63.00;;;;;;5035213;28;20101;-75
2022/08/02 07:17:27;;;;;;;4.50;1.40;;;37.20;55.40;;;;;;5047124;28;20025;-75
2022/08/02 07:19:53;;;;;;;5.50;1.80;;;37.40;47.80;;;;;;5035892;28;20036;-76
2022/08/02 07:22:22;;;;;;;2.97;1.80;;;33.20;33.60;;;;;;5035612;28;20057;-77
2022/08/02 07:24:48;;;;;;;5.50;1.60;;;30.00;27.90;;;;;;5037517;28;20022;-77
2022/08/02 07:27:14;;;;;;;2.55;1.42;;;31.70;36.00;;;;;;5052011;28;20294;-78
2022/08/02 07:29:40;;;;;;;6.43;1.70;;;31.80;36.30;;;;;;5052022;28;20379;-77
2022/08/02 07:32:06;;;;;;;6.25;1.67;;;31.10;38.00;;;;;;5038447;28;20472;-77
2022/08/02 07:34:31;;;;;;;5.30;1.77;;;30.10;41.30;;;;;;5039850;28;20061;-77
2022/08/02 07:36:57;;;;;;;6.93;1.85;;;30.50;45.70;;;;;;5037918;28;20037;-77
2022/08/02 07:39:23;;;;;;;3.97;1.52;;;30.10;46.20;;;;;;5051089;28;20017;-78
2022/08/02 07:41:50;;;;;;;3.90;2.10;;;29.70;49.40;;;;;;5055082;28;20017;-77
2022/08/02 07:44:17;;;;;;;2.85;1.77;;;30.20;55.00;;;;;;5057426;28;20078;-77
2022/08/02 07:46:43;;;;;;;3.58;1.90;;;29.20;58.20;;;;;;5055081;28;20025;-76
2022/08/02 07:49:09;;;;;;;7.60;1.90;;;30.80;68.20;;;;;;5054369;28;20100;-76
2022/08/02 07:51:35;;;;;;;3.88;1.98;;;31.30;67.70;;;;;;5053896;28;20057;-76
2022/08/02 07:54:01;;;;;;;3.13;1.73;;;32.00;66.20;;;;;;5041426;28;20028;-76
2022/08/02 07:56:26;;;;;;;5.57;2.10;;;33.90;66.20;;;;;;5034312;28;20029;-78
2022/08/02 07:58:52;;;;;;;5.55;2.13;;;34.60;60.70;;;;;;5045602;28;20049;-76
2022/08/02 08:01:18;;;;;;;3.90;2.20;;;34.50;56.90;;;;;;5037593;28;20388;-76
2022/08/02 08:03:44;;;;;;;4.55;2.10;;;34.90;54.00;;;;;;5045707;28;20029;-76
2022/08/02 08:06:10;;;;;;;3.20;1.90;;;34.30;50.30;;;;;;5033915;28;20037;-76
2022/08/02 08:08:35;;;;;;;5.30;2.47;;;34.70;48.70;;;;;;5046368;28;20025;-76
2022/08/02 08:11:01;;;;;;;3.70;2.30;;;33.70;46.90;;;;;;5035181;28;20080;-76
2022/08/02 08:13:27;;;;;;;3.63;2.10;;;33.90;47.70;;;;;;5053105;28;20047;-76
2022/08/02 08:15:52;;;;;;;4.95;2.55;;;33.20;45.50;;;;;;5041956;28;20104;-74
2022/08/02 08:18:21;;;;;;;4.13;2.40;;;31.80;41.90;;;;;;5046711;28;20022;-73
2022/08/02 08:20:47;;;;;;;4.78;2.42;;;31.80;46.60;;;;;;5033665;28;20079;-74
2022/08/02 08:23:13;;;;;;;6.03;2.58;;;31.90;51.50;;;;;;5039943;28;20021;-74
2022/08/02 08:25:39;;;;;;;5.68;2.60;;;30.50;51.90;;;;;;5053667;28;20021;-74
2022/08/02 08:28:04;;;;;;;5.80;2.40;;;30.60;60.70;;;;;;5053221;28;20060;-74
2022/08/02 08:30:30;;;;;;;4.97;2.90;;;31.30;66.30;;;;;;5053491;28;20068;-73
2022/08/02 08:32:56;;;;;;;6.43;2.92;;;31.00;64.30;;;;;;5052930;28;20135;-74
2022/08/02 08:35:21;;;;;;;4.95;2.78;;;30.70;69.80;;;;;;5053399;28;20028;-74
2022/08/02 08:37:48;;;;;;;4.68;3.08;;;30.50;71.40;;;;;;5033295;28;20476;-74
2022/08/02 08:40:13;;;;;;;4.00;2.70;;;30.00;75.20;;;;;;5048832;28;20017;-74
2022/08/02 08:42:39;;;;;;;6.60;3.65;;;30.30;85.20;;;;;;5051815;28;20369;-74
2022/08/02 08:45:06;;;;;;;4.57;2.85;;;30.20;87.40;;;;;;5047526;28;20032;-74
2022/08/02 08:47:36;;;;;;;6.45;4.00;;;30.10;90.70;;;;;;5047565;28;20029;-74
2022/08/02 08:50:06;;;;;;;7.35;3.80;;;30.00;91.80;;;;;;5057091;28;20029;-74
2022/08/02 08:52:40;;;;;;;6.32;3.75;;;29.70;95.70;;;;;;5045249;28;20021;-74
2022/08/02 08:55:09;;;;;;;9.00;4.00;;;29.90;98.10;;;;;;5056879;28;20057;-75
2022/08/02 08:57:40;;;;;;;7.68;3.92;;;29.60;98.10;;;;;;5049476;28;20026;-74
2022/08/02 09:00:06;;;;;;;6.53;3.90;;;29.90;99.90;;;;;;5050247;28;20036;-74
2022/08/02 09:02:35;;;;;;;5.75;3.97;;;29.90;98.90;;;;;;5046072;28;20065;-74
2022/08/02 09:05:01;;;;;;;7.57;4.00;;;30.40;99.40;;;;;;5048092;28;20052;-75
2022/08/02 09:07:27;;;;;;;8.55;4.43;;;31.40;96.50;;;;;;5053371;28;20061;-75
2022/08/02 09:09:53;;;;;;;7.18;4.53;;;32.30;92.70;;;;;;5053078;28;20119;-74
2022/08/02 09:12:23;;;;;;;5.93;5.07;;;33.30;88.30;;;;;;5052234;28;20024;-74
2022/08/02 09:14:49;;;;;;;9.48;5.32;;;33.00;81.00;;;;;;5047702;28;20029;-74
2022/08/02 09:17:15;;;;;;;9.32;5.85;;;34.30;78.20;;;;;;5032493;28;20101;-74
2022/08/02 09:19:41;;;;;;;7.18;5.30;;;34.70;70.60;;;;;;5043129;28;20664;-75
2022/08/02 09:22:10;;;;;;;8.25;5.20;;;35.70;69.40;;;;;;5048296;28;20029;-74
2022/08/02 09:24:44;;;;;;;8.15;5.43;;;36.30;61.90;;;;;;5042915;28;20037;-73
2022/08/02 09:27:15;;;;;;;9.32;6.10;;;36.00;56.20;;;;;;5032691;28;20070;-73
2022/08/02 09:29:45;;;;;;;9.43;5.88;;;36.50;51.30;;;;;;5043747;28;20021;-75
2022/08/02 09:32:11;;;;;;;8.40;5.72;;;34.80;45.60;;;;;;5052072;28;20086;-75
2022/08/02 09:34:46;;;;;;;8.65;6.38;;;35.60;47.00;;;;;;5051861;28;20053;-75
2022/08/02 09:37:24;;;;;;;10.70;6.57;;;34.20;42.00;;;;;;5038356;28;20488;-74
2022/08/02 09:39:50;;;;;;;8.93;6.33;;;33.60;44.80;;;;;;5036750;28;20397;-75
2022/08/02 09:42:16;;;;;;;9.70;7.05;;;32.50;47.10;;;;;;5032122;28;20108;-74
2022/08/02 09:45:01;;;;;;;8.07;6.28;;;31.60;55.60;;;;;;5032088;28;20037;-75
2022/08/02 09:47:27;;;;;;;10.00;7.45;;;32.10;73.00;;;;;;5042890;28;20020;-75
2022/08/02 09:49:55;;;;;;;11.75;7.70;;;33.80;68.10;;;;;;5052874;28;20468;-74
2022/08/02 09:52:30;;;;;;;7.43;6.60;;;34.60;62.00;;;;;;5054369;28;20476;-74
2022/08/02 09:55:05;;;;;;;9.70;7.15;;;36.30;62.70;;;;;;5043341;28;20028;-75
2022/08/02 09:57:32;;;;;;;8.43;7.22;;;39.40;58.80;;;;;;5051781;28;20042;-75
2022/08/02 09:59:58;;;;;;;8.98;7.50;;;40.40;45.40;;;;;;5056882;28;20605;-75
2022/08/02 10:02:24;;;;;;;11.35;7.97;;;38.80;34.70;;;;;;5046682;28;20167;-75
2022/08/02 10:04:50;;;;;;;9.70;8.05;;;39.50;32.10;;;;;;5042629;28;20028;-75
2022/08/02 10:07:16;;;;;;;11.40;7.70;;;39.60;27.50;;;;;;5047759;28;20029;-75
2022/08/02 10:09:44;;;;;;;9.50;7.95;;;42.10;27.30;;;;;;5044219;28;20446;-75
2022/08/02 10:12:11;;;;;;;10.98;8.40;;;39.70;18.40;;;;;;5060981;28;20040;-74
2022/08/02 10:14:37;;;;;;;12.73;7.32;;;38.00;16.50;;;;;;5058745;28;20095;-75
2022/08/02 10:17:04;;;;;;;9.55;7.30;;;39.30;16.30;;;;;;5040667;28;20025;-75
2022/08/02 10:19:29;;;;;;;9.63;7.25;;;38.10;12.80;;;;;;5055886;28;20422;-75
2022/08/02 10:21:58;;;;;;;8.38;6.60;;;35.70;10.60;;;;;;5058581;28;20029;-75
2022/08/02 10:24:27;;;;;;;10.25;8.40;;;35.70;12.20;;;;;;5048976;28;20024;-75
2022/08/02 10:26:53;;;;;;;10.05;9.00;;;35.40;12.50;;;;;;5052692;28;20033;-75
2022/08/02 10:29:29;;;;;;;9.00;7.85;;;35.80;13.80;;;;;;5038334;28;20037;-75
2022/08/02 10:31:59;;;;;;;11.70;9.35;;;35.90;15.50;;;;;;5045846;28;20035;-75
2022/08/02 10:34:39;;;;;;;12.30;8.38;;;34.80;13.50;;;;;;5043239;28;20163;-75
2022/08/02 10:37:07;;;;;;;12.00;8.98;;;34.80;19.50;;;;;;5047226;28;20034;-75
2022/08/02 10:39:40;;;;;;;9.90;7.78;;;34.10;17.60;;;;;;5057172;28;20079;-75
2022/08/02 10:42:07;;;;;;;10.15;9.00;;;33.80;20.30;;;;;;5055313;28;20374;-75
2022/08/02 10:44:34;;;;;;;11.32;9.25;;;32.50;22.70;;;;;;5055077;28;20036;-75
2022/08/02 10:47:21;;;;;;;11.65;8.90;;;32.10;35.50;;;;;;5039956;28;20029;-75
2022/08/02 10:49:54;;;;;;;14.27;10.70;;;31.70;45.40;;;;;;5035001;28;20049;-75
2022/08/02 10:52:27;;;;;;;13.45;9.50;;;31.10;56.70;;;;;;5047237;28;20538;-76
2022/08/02 10:55:09;;;;;;;10.40;9.18;;;31.70;70.90;;;;;;5035543;28;20037;-75
2022/08/02 10:57:36;;;;;;;10.70;8.95;;;32.80;75.60;;;;;;5048940;28;20025;-75
2022/08/02 11:00:12;;;;;;;15.07;10.55;;;32.40;79.40;;;;;;5048998;28;20017;-75
2022/08/02 11:02:40;;;;;;;12.48;9.70;;;31.90;85.10;;;;;;5038558;28;20815;-75
2022/08/02 11:05:10;;;;;;;11.75;9.48;;;32.10;89.80;;;;;;5054238;28;20021;-73
2022/08/02 11:07:44;;;;;;;12.13;9.80;;;31.40;91.70;;;;;;5036095;28;20020;-75
2022/08/02 11:10:25;;;;;;;12.50;8.93;;;30.90;95.40;;;;;;5035041;28;20022;-76
2022/08/02 11:13:02;;;;;;;12.30;10.45;;;31.00;96.80;;;;;;5036883;28;20037;-76
2022/08/02 11:15:29;;;;;;;14.00;10.45;;;30.20;99.90;;;;;;5035254;28;20034;-75
2022/08/02 11:17:57;;;;;;;12.90;9.75;;;29.70;99.90;;;;;;5037779;28;20416;-75
2022/08/02 11:20:27;;;;;;;12.63;11.07;;;29.70;99.90;;;;;;5036959;28;20033;-72
2022/08/02 11:23:13;;;;;;;12.90;10.93;;;29.90;99.90;;;;;;5041631;28;20037;-73
2022/08/02 11:25:39;;;;;;;12.20;10.20;;;29.70;99.90;;;;;;5044974;28;20148;-72
2022/08/02 11:28:10;;;;;;;14.93;11.30;;;29.20;99.90;;;;;;5037877;28;20048;-72
2022/08/02 11:30:36;;;;;;;13.82;10.77;;;28.90;99.90;;;;;;5035920;28;20072;-72
2022/08/02 11:33:03;;;;;;;12.90;10.50;;;29.20;99.90;;;;;;5054759;28;20041;-72
2022/08/02 11:35:33;;;;;;;12.15;10.68;;;28.80;99.90;;;;;;5054757;28;20029;-72
2022/08/02 11:38:18;;;;;;;13.52;10.32;;;28.50;99.90;;;;;;5054604;28;20605;-72
2022/08/02 11:40:45;;;;;;;16.85;10.57;;;28.30;99.90;;;;;;5055135;28;20029;-72
2022/08/02 11:43:26;;;;;;;11.63;9.23;;;28.10;99.90;;;;;;5055448;28;20048;-75
2022/08/02 11:45:53;;;;;;;13.82;9.50;;;28.30;99.90;;;;;;5053491;28;20028;-75
2022/08/02 11:48:35;;;;;;;12.20;8.60;;;28.10;99.90;;;;;;5055452;28;20049;-74
2022/08/02 11:51:14;;;;;;;11.43;9.00;;;28.20;99.90;;;;;;5054610;28;20032;-74
2022/08/02 11:53:41;;;;;;;10.70;8.82;;;27.40;99.90;;;;;;5054688;28;20017;-74
2022/08/02 11:56:07;;;;;;;10.10;8.50;;;27.40;99.90;;;;;;5054473;28;20147;-75
2022/08/02 11:58:33;;;;;;;10.20;8.13;;;27.60;99.90;;;;;;5036993;28;20056;-74
2022/08/02 12:00:58;;;;;;;9.70;7.45;;;27.40;99.90;;;;;;5051046;28;20021;-74
2022/08/02 12:03:24;;;;;;;11.98;8.18;;;27.30;99.90;;;;;;5047644;28;20443;-74
2022/08/02 12:05:49;;;;;;;9.82;7.63;;;27.20;99.90;;;;;;5055650;28;20025;-74
2022/08/02 12:08:16;;;;;;;9.85;7.75;;;27.60;99.90;;;;;;5043514;28;20424;-75
2022/08/02 12:10:49;;;;;;;11.75;8.43;;;27.80;99.90;;;;;;5038583;28;20159;-74
2022/08/02 12:13:14;;;;;;;12.20;8.40;;;28.00;99.90;;;;;;5051223;28;20393;-74
2022/08/02 12:15:46;;;;;;;12.80;8.85;;;27.80;99.90;;;;;;5046317;28;20082;-75
2022/08/02 12:21:03;;;;;;;10.30;8.25;;;27.60;99.90;;;;;;5046053;28;20044;-75
2022/08/02 12:23:28;;;;;;;8.43;7.47;;;27.70;99.90;;;;;;5034811;28;20022;-74
2022/08/02 12:26:05;;;;;;;9.30;7.45;;;27.70;99.90;;;;;;5039489;28;20337;-74
2022/08/02 12:28:34;;;;;;;9.45;7.28;;;27.70;99.90;;;;;;5035153;28;20021;-74
2022/08/02 12:31:00;;;;;;;12.13;7.60;;;28.00;99.90;;;;;;5054423;28;20025;-75
2022/08/02 12:33:29;;;;;;;11.18;7.93;;;28.40;99.90;;;;;;5054812;28;20092;-75
2022/08/02 12:35:55;;;;;;;10.48;8.18;;;28.70;99.90;;;;;;5052233;28;21715;-74
2022/08/02 12:38:21;;;;;;;9.82;8.43;;;28.50;99.90;;;;;;5038329;28;20052;-75
2022/08/02 12:40:47;;;;;;;9.95;8.23;;;28.40;99.90;;;;;;5050217;28;20542;-75
2022/08/02 12:43:18;;;;;;;9.98;8.30;;;28.80;99.90;;;;;;5039012;28;20473;-74
2022/08/02 12:45:52;;;;;;;8.68;7.53;;;29.30;99.90;;;;;;5054571;28;20064;-75
2022/08/02 12:48:33;;;;;;;9.27;7.47;;;29.60;99.90;;;;;;5064873;28;20021;-75
2022/08/02 12:51:16;;;;;;;10.25;6.65;;;30.10;99.90;;;;;;5061730;28;20051;-76
2022/08/02 12:53:42;;;;;;;9.88;7.82;;;30.40;99.90;;;;;;5043410;28;20433;-75
2022/08/02 12:56:08;;;;;;;8.70;7.03;;;30.40;99.90;;;;;;5054601;28;20025;-74
2022/08/02 12:58:50;;;;;;;9.10;6.18;;;30.50;99.90;;;;;;5049912;28;20028;-75
2022/08/02 13:01:21;;;;;;;6.38;5.72;;;30.50;99.90;;;;;;5065512;28;20033;-75
2022/08/02 13:03:47;;;;;;;8.65;5.65;;;30.70;99.90;;;;;;5060469;28;20047;-75
2022/08/02 13:06:12;;;;;;;4.93;4.47;;;30.30;99.90;;;;;;5058078;28;20037;-75